sensor_id;sensor_type;location;lat;lon;timestamp;pressure;altitude;pressure_sealevel;temperature;humidity
8575;BME280;4325;42.520;27.448;2023-02-19T00:02:11;101216.25;;;11.72;58.30
8575;BME280;4325;42.520;27.448;2023-02-19T00:04:38;101214.03;;;11.69;58.72
8575;BME280;4325;42.520;27.448;2023-02-19T00:07:05;101202.97;;;11.59;59.19
8575;BME280;4325;42.520;27.448;2023-02-19T00:09:32;101208.47;;;11.59;58.88
8575;BME280;4325;42.520;27.448;2023-02-19T00:11:59;101217.81;;;11.58;59.45
8575;BME280;4325;42.520;27.448;2023-02-19T00:14:26;101204.09;;;11.63;58.50
8575;BME280;4325;42.520;27.448;2023-02-19T00:16:53;101206.56;;;11.65;58.91
8575;BME280;4325;42.520;27.448;2023-02-19T00:19:21;101210.69;;;11.67;58.90
8575;BME280;4325;42.520;27.448;2023-02-19T00:21:50;101205.22;;;11.67;58.35
8575;BME280;4325;42.520;27.448;2023-02-19T00:24:17;101195.38;;;11.71;57.90
8575;BME280;4325;42.520;27.448;2023-02-19T00:26:45;101188.53;;;11.74;57.60
8575;BME280;4325;42.520;27.448;2023-02-19T00:29:14;101172.06;;;11.74;57.22
8575;BME280;4325;42.520;27.448;2023-02-19T00:31:41;101176.78;;;11.88;56.66
8575;BME280;4325;42.520;27.448;2023-02-19T00:34:09;101176.81;;;11.93;56.28
8575;BME280;4325;42.520;27.448;2023-02-19T00:36:39;101187.25;;;11.97;56.56
8575;BME280;4325;42.520;27.448;2023-02-19T00:39:07;101170.25;;;12.00;56.23
8575;BME280;4325;42.520;27.448;2023-02-19T00:41:34;101169.69;;;12.03;56.44
8575;BME280;4325;42.520;27.448;2023-02-19T00:44:03;101171.38;;;12.09;56.33
8575;BME280;4325;42.520;27.448;2023-02-19T00:46:31;101166.97;;;12.08;56.04
8575;BME280;4325;42.520;27.448;2023-02-19T00:48:59;101157.91;;;12.12;55.56
8575;BME280;4325;42.520;27.448;2023-02-19T00:51:28;101166.44;;;12.11;55.18
8575;BME280;4325;42.520;27.448;2023-02-19T00:53:57;101155.44;;;12.11;54.69
8575;BME280;4325;42.520;27.448;2023-02-19T00:56:24;101162.59;;;12.12;54.67
8575;BME280;4325;42.520;27.448;2023-02-19T00:58:51;101160.94;;;12.11;54.23
8575;BME280;4325;42.520;27.448;2023-02-19T01:01:18;101134.56;;;12.05;54.25
8575;BME280;4325;42.520;27.448;2023-02-19T01:03:46;101144.75;;;12.04;54.59
8575;BME280;4325;42.520;27.448;2023-02-19T01:06:14;101144.19;;;12.02;54.34
8575;BME280;4325;42.520;27.448;2023-02-19T01:08:41;101125.75;;;11.92;54.79
8575;BME280;4325;42.520;27.448;2023-02-19T01:11:10;101126.03;;;11.86;55.23
8575;BME280;4325;42.520;27.448;2023-02-19T01:13:38;101108.47;;;11.82;55.72
8575;BME280;4325;42.520;27.448;2023-02-19T01:16:07;101103.78;;;11.77;55.88
8575;BME280;4325;42.520;27.448;2023-02-19T01:18:34;101099.91;;;11.68;55.94
8575;BME280;4325;42.520;27.448;2023-02-19T01:21:05;101113.63;;;11.68;56.57
8575;BME280;4325;42.520;27.448;2023-02-19T01:23:32;101108.66;;;11.65;56.68
8575;BME280;4325;42.520;27.448;2023-02-19T01:26:03;101121.31;;;11.71;56.56
8575;BME280;4325;42.520;27.448;2023-02-19T01:28:31;101116.94;;;11.70;56.47
8575;BME280;4325;42.520;27.448;2023-02-19T01:31:00;101122.38;;;11.65;56.33
8575;BME280;4325;42.520;27.448;2023-02-19T01:33:27;101114.69;;;11.62;56.53
8575;BME280;4325;42.520;27.448;2023-02-19T01:35:53;101120.44;;;11.61;56.91
8575;BME280;4325;42.520;27.448;2023-02-19T01:38:20;101114.13;;;11.55;57.41
8575;BME280;4325;42.520;27.448;2023-02-19T01:40:53;101115.44;;;11.48;58.09
8575;BME280;4325;42.520;27.448;2023-02-19T01:43:21;101103.63;;;11.42;58.45
8575;BME280;4325;42.520;27.448;2023-02-19T01:45:49;101103.63;;;11.42;58.45
8575;BME280;4325;42.520;27.448;2023-02-19T01:48:20;101104.47;;;11.43;58.77
8575;BME280;4325;42.520;27.448;2023-02-19T01:50:50;101102.56;;;11.43;58.47
8575;BME280;4325;42.520;27.448;2023-02-19T01:53:21;101094.31;;;11.43;58.33
8575;BME280;4325;42.520;27.448;2023-02-19T01:55:53;101098.16;;;11.47;58.11
8575;BME280;4325;42.520;27.448;2023-02-19T01:58:20;101091.59;;;11.48;58.33
8575;BME280;4325;42.520;27.448;2023-02-19T02:00:50;101096.25;;;11.48;58.47
8575;BME280;4325;42.520;27.448;2023-02-19T02:03:17;101098.69;;;11.44;58.21
8575;BME280;4325;42.520;27.448;2023-02-19T02:05:49;101088.53;;;11.40;58.47
8575;BME280;4325;42.520;27.448;2023-02-19T02:08:18;101090.72;;;11.38;58.96
8575;BME280;4325;42.520;27.448;2023-02-19T02:11:03;101095.91;;;11.34;58.93
8575;BME280;4325;42.520;27.448;2023-02-19T02:13:32;101094.28;;;11.33;58.71
8575;BME280;4325;42.520;27.448;2023-02-19T02:16:10;101095.38;;;11.32;58.46
8575;BME280;4325;42.520;27.448;2023-02-19T02:18:50;101097.00;;;11.28;58.98
8575;BME280;4325;42.520;27.448;2023-02-19T02:21:32;101096.94;;;11.18;59.12
8575;BME280;4325;42.520;27.448;2023-02-19T02:24:11;101090.38;;;11.14;59.75
8575;BME280;4325;42.520;27.448;2023-02-19T02:26:54;101093.06;;;11.09;60.16
8575;BME280;4325;42.520;27.448;2023-02-19T02:29:50;101098.00;;;11.07;60.57
8575;BME280;4325;42.520;27.448;2023-02-19T02:32:23;101102.91;;;11.05;60.67
8575;BME280;4325;42.520;27.448;2023-02-19T02:34:55;101104.81;;;10.99;60.98
8575;BME280;4325;42.520;27.448;2023-02-19T02:37:24;101106.41;;;10.95;61.18
8575;BME280;4325;42.520;27.448;2023-02-19T02:39:53;101109.97;;;10.96;61.33
8575;BME280;4325;42.520;27.448;2023-02-19T02:42:21;101103.16;;;10.98;61.77
8575;BME280;4325;42.520;27.448;2023-02-19T02:44:55;101101.25;;;10.99;62.31
8575;BME280;4325;42.520;27.448;2023-02-19T02:47:42;101094.69;;;11.05;62.73
8575;BME280;4325;42.520;27.448;2023-02-19T02:50:14;101102.09;;;11.04;62.52
8575;BME280;4325;42.520;27.448;2023-02-19T02:52:44;101116.59;;;11.05;62.72
8575;BME280;4325;42.520;27.448;2023-02-19T02:55:35;101110.03;;;11.06;62.63
8575;BME280;4325;42.520;27.448;2023-02-19T02:58:04;101115.00;;;11.09;62.06
8575;BME280;4325;42.520;27.448;2023-02-19T03:00:33;101113.34;;;11.08;61.69
8575;BME280;4325;42.520;27.448;2023-02-19T03:03:20;101118.28;;;11.11;61.84
8575;BME280;4325;42.520;27.448;2023-02-19T03:05:52;101104.06;;;11.14;61.64
8575;BME280;4325;42.520;27.448;2023-02-19T03:08:24;101110.13;;;11.21;61.05
8575;BME280;4325;42.520;27.448;2023-02-19T03:10:56;101106.88;;;11.24;60.90
8575;BME280;4325;42.520;27.448;2023-02-19T03:13:45;101118.91;;;11.23;60.65
8575;BME280;4325;42.520;27.448;2023-02-19T03:16:33;101126.59;;;11.26;60.72
8575;BME280;4325;42.520;27.448;2023-02-19T03:19:26;101126.56;;;11.21;60.55
8575;BME280;4325;42.520;27.448;2023-02-19T03:21:55;101132.06;;;11.21;60.50
8575;BME280;4325;42.520;27.448;2023-02-19T03:24:28;101127.66;;;11.20;60.42
8575;BME280;4325;42.520;27.448;2023-02-19T03:27:13;101135.63;;;11.21;60.43
8575;BME280;4325;42.520;27.448;2023-02-19T03:29:43;101144.13;;;11.25;60.43
8575;BME280;4325;42.520;27.448;2023-02-19T03:32:15;101161.09;;;11.22;60.53
8575;BME280;4325;42.520;27.448;2023-02-19T03:34:46;101152.88;;;11.22;60.71
8575;BME280;4325;42.520;27.448;2023-02-19T03:37:16;101156.72;;;11.21;60.52
8575;BME280;4325;42.520;27.448;2023-02-19T03:39:46;101153.69;;;11.22;60.33
8575;BME280;4325;42.520;27.448;2023-02-19T03:42:19;101146.00;;;11.19;60.32
8575;BME280;4325;42.520;27.448;2023-02-19T03:44:52;101156.41;;;11.17;60.90
8575;BME280;4325;42.520;27.448;2023-02-19T03:47:26;101161.63;;;11.14;61.26
8575;BME280;4325;42.520;27.448;2023-02-19T03:49:58;101161.03;;;11.07;61.48
8575;BME280;4325;42.520;27.448;2023-02-19T03:52:34;101177.91;;;10.94;62.62
8575;BME280;4325;42.520;27.448;2023-02-19T03:55:07;101174.81;;;10.80;63.43
8575;BME280;4325;42.520;27.448;2023-02-19T03:57:41;101174.47;;;10.72;64.34
8575;BME280;4325;42.520;27.448;2023-02-19T04:00:15;101173.53;;;10.61;65.00
8575;BME280;4325;42.520;27.448;2023-02-19T04:02:48;101156.50;;;10.54;65.52
8575;BME280;4325;42.520;27.448;2023-02-19T04:05:18;101166.03;;;10.46;66.28
8575;BME280;4325;42.520;27.448;2023-02-19T04:07:49;101160.78;;;10.40;66.62
8575;BME280;4325;42.520;27.448;2023-02-19T04:10:18;101161.03;;;10.38;67.00
8575;BME280;4325;42.520;27.448;2023-02-19T04:12:48;101156.03;;;10.30;67.67
8575;BME280;4325;42.520;27.448;2023-02-19T04:15:20;101153.19;;;10.20;68.20
8575;BME280;4325;42.520;27.448;2023-02-19T04:17:54;101159.88;;;10.08;69.02
8575;BME280;4325;42.520;27.448;2023-02-19T04:20:23;101160.34;;;10.00;69.85
8575;BME280;4325;42.520;27.448;2023-02-19T04:22:52;101163.41;;;9.81;70.83
8575;BME280;4325;42.520;27.448;2023-02-19T04:25:19;101189.84;;;9.71;72.64
8575;BME280;4325;42.520;27.448;2023-02-19T04:27:48;101198.03;;;9.71;73.02
8575;BME280;4325;42.520;27.448;2023-02-19T04:30:15;101188.16;;;9.70;73.00
8575;BME280;4325;42.520;27.448;2023-02-19T04:32:42;101188.66;;;9.67;73.42
8575;BME280;4325;42.520;27.448;2023-02-19T04:35:10;101187.53;;;9.63;73.66
8575;BME280;4325;42.520;27.448;2023-02-19T04:37:37;101183.06;;;9.57;73.71
8575;BME280;4325;42.520;27.448;2023-02-19T04:40:04;101181.09;;;9.52;73.79
8575;BME280;4325;42.520;27.448;2023-02-19T04:42:31;101180.72;;;9.44;74.05
8575;BME280;4325;42.520;27.448;2023-02-19T04:44:58;101191.34;;;9.40;75.13
8575;BME280;4325;42.520;27.448;2023-02-19T04:47:25;101198.41;;;9.36;75.74
8575;BME280;4325;42.520;27.448;2023-02-19T04:49:52;101206.81;;;9.35;76.20
8575;BME280;4325;42.520;27.448;2023-02-19T04:52:20;101216.63;;;9.30;76.27
8575;BME280;4325;42.520;27.448;2023-02-19T04:54:47;101211.00;;;9.20;76.64
8575;BME280;4325;42.520;27.448;2023-02-19T04:57:14;101229.56;;;9.18;77.13
8575;BME280;4325;42.520;27.448;2023-02-19T04:59:41;101223.03;;;9.19;78.02
8575;BME280;4325;42.520;27.448;2023-02-19T05:02:08;101232.09;;;9.25;78.35
8575;BME280;4325;42.520;27.448;2023-02-19T05:04:35;101233.00;;;9.30;78.52
8575;BME280;4325;42.520;27.448;2023-02-19T05:07:02;101243.94;;;9.30;78.37
8575;BME280;4325;42.520;27.448;2023-02-19T05:09:30;101241.22;;;9.30;78.15
8575;BME280;4325;42.520;27.448;2023-02-19T05:11:57;101233.00;;;9.30;78.51
8575;BME280;4325;42.520;27.448;2023-02-19T05:14:24;101239.03;;;9.32;79.10
8575;BME280;4325;42.520;27.448;2023-02-19T05:16:51;101236.16;;;9.39;79.33
8575;BME280;4325;42.520;27.448;2023-02-19T05:19:18;101228.34;;;9.48;79.64
8575;BME280;4325;42.520;27.448;2023-02-19T05:21:45;101233.94;;;9.58;79.38
8575;BME280;4325;42.520;27.448;2023-02-19T05:24:11;101237.66;;;9.68;78.65
8575;BME280;4325;42.520;27.448;2023-02-19T05:26:40;101234.22;;;9.78;78.24
8575;BME280;4325;42.520;27.448;2023-02-19T05:29:06;101231.56;;;9.83;77.99
8575;BME280;4325;42.520;27.448;2023-02-19T05:31:33;101234.66;;;9.91;77.60
8575;BME280;4325;42.520;27.448;2023-02-19T05:34:00;101234.78;;;10.02;77.20
8575;BME280;4325;42.520;27.448;2023-02-19T05:36:27;101219.81;;;10.09;76.52
8575;BME280;4325;42.520;27.448;2023-02-19T05:38:55;101212.69;;;10.08;76.11
8575;BME280;4325;42.520;27.448;2023-02-19T05:41:24;101208.25;;;10.02;76.65
8575;BME280;4325;42.520;27.448;2023-02-19T05:43:53;101209.38;;;10.06;76.80
8575;BME280;4325;42.520;27.448;2023-02-19T05:46:22;101212.78;;;10.13;76.54
8575;BME280;4325;42.520;27.448;2023-02-19T05:48:50;101218.09;;;10.25;80.13
8575;BME280;4325;42.520;27.448;2023-02-19T05:51:19;101224.50;;;10.35;78.96
8575;BME280;4325;42.520;27.448;2023-02-19T05:53:47;101218.63;;;10.48;77.21
8575;BME280;4325;42.520;27.448;2023-02-19T05:56:23;101220.34;;;10.59;76.43
8575;BME280;4325;42.520;27.448;2023-02-19T05:58:50;101222.06;;;10.66;76.14
8575;BME280;4325;42.520;27.448;2023-02-19T06:01:20;101225.16;;;10.74;75.33
8575;BME280;4325;42.520;27.448;2023-02-19T06:03:47;101225.19;;;10.79;74.91
8575;BME280;4325;42.520;27.448;2023-02-19T06:06:16;101229.31;;;10.82;75.51
8575;BME280;4325;42.520;27.448;2023-02-19T06:08:43;101238.50;;;10.97;76.04
8575;BME280;4325;42.520;27.448;2023-02-19T06:11:10;101252.53;;;11.06;76.58
8575;BME280;4325;42.520;27.448;2023-02-19T06:13:36;101257.78;;;11.12;76.93
8575;BME280;4325;42.520;27.448;2023-02-19T06:16:04;101253.22;;;11.23;76.46
8575;BME280;4325;42.520;27.448;2023-02-19T06:18:32;101253.28;;;11.33;76.28
8575;BME280;4325;42.520;27.448;2023-02-19T06:21:00;101256.94;;;11.44;76.16
8575;BME280;4325;42.520;27.448;2023-02-19T06:23:27;101250.72;;;11.58;75.78
8575;BME280;4325;42.520;27.448;2023-02-19T06:25:54;101250.44;;;11.60;76.01
8575;BME280;4325;42.520;27.448;2023-02-19T06:28:21;101255.41;;;11.63;76.52
8575;BME280;4325;42.520;27.448;2023-02-19T06:30:48;101256.00;;;11.70;76.63
8575;BME280;4325;42.520;27.448;2023-02-19T06:33:15;101262.31;;;11.70;77.01
8575;BME280;4325;42.520;27.448;2023-02-19T06:35:43;101276.13;;;11.90;76.22
8575;BME280;4325;42.520;27.448;2023-02-19T06:38:10;101276.16;;;11.96;75.88
8575;BME280;4325;42.520;27.448;2023-02-19T06:40:37;101278.41;;;12.09;75.53
8575;BME280;4325;42.520;27.448;2023-02-19T06:43:04;101290.53;;;12.23;75.02
8575;BME280;4325;42.520;27.448;2023-02-19T06:45:31;101299.66;;;12.48;73.90
8575;BME280;4325;42.520;27.448;2023-02-19T06:47:57;101297.28;;;12.77;72.11
8575;BME280;4325;42.520;27.448;2023-02-19T06:50:24;101300.63;;;13.09;69.71
8575;BME280;4325;42.520;27.448;2023-02-19T06:52:53;101295.09;;;13.60;67.00
8575;BME280;4325;42.520;27.448;2023-02-19T06:55:19;101293.69;;;14.46;61.69
8575;BME280;4325;42.520;27.448;2023-02-19T06:57:46;101290.91;;;15.29;57.27
8575;BME280;4325;42.520;27.448;2023-02-19T07:00:14;101281.97;;;15.95;53.93
8575;BME280;4325;42.520;27.448;2023-02-19T07:02:40;101294.00;;;16.88;50.50
8575;BME280;4325;42.520;27.448;2023-02-19T07:05:07;101304.63;;;17.32;47.94
8575;BME280;4325;42.520;27.448;2023-02-19T07:07:34;101292.38;;;17.20;47.38
8575;BME280;4325;42.520;27.448;2023-02-19T07:10:03;101308.72;;;17.02;47.69
8575;BME280;4325;42.520;27.448;2023-02-19T07:12:30;101313.50;;;17.15;47.73
8575;BME280;4325;42.520;27.448;2023-02-19T07:14:57;101306.81;;;17.49;46.71
8575;BME280;4325;42.520;27.448;2023-02-19T07:17:23;101303.41;;;17.84;45.80
8575;BME280;4325;42.520;27.448;2023-02-19T07:19:50;101297.13;;;18.96;43.42
8575;BME280;4325;42.520;27.448;2023-02-19T07:22:17;101285.78;;;20.68;39.54
8575;BME280;4325;42.520;27.448;2023-02-19T07:24:44;101291.13;;;20.39;39.29
8575;BME280;4325;42.520;27.448;2023-02-19T07:27:12;101307.72;;;19.83;40.30
8575;BME280;4325;42.520;27.448;2023-02-19T07:29:39;101307.78;;;19.60;40.56
8575;BME280;4325;42.520;27.448;2023-02-19T07:32:06;101307.38;;;20.15;39.94
8575;BME280;4325;42.520;27.448;2023-02-19T07:34:32;101320.31;;;21.01;38.15
8575;BME280;4325;42.520;27.448;2023-02-19T07:36:59;101323.28;;;22.41;35.77
8575;BME280;4325;42.520;27.448;2023-02-19T07:39:26;101327.38;;;22.93;34.51
8575;BME280;4325;42.520;27.448;2023-02-19T07:41:53;101320.94;;;23.54;33.86
8575;BME280;4325;42.520;27.448;2023-02-19T07:44:21;101318.97;;;24.84;31.95
8575;BME280;4325;42.520;27.448;2023-02-19T07:46:48;101305.31;;;25.23;30.72
8575;BME280;4325;42.520;27.448;2023-02-19T07:49:15;101303.00;;;24.49;31.79
8575;BME280;4325;42.520;27.448;2023-02-19T07:51:42;101306.19;;;25.11;30.98
8575;BME280;4325;42.520;27.448;2023-02-19T07:54:09;101308.81;;;25.91;29.82
8575;BME280;4325;42.520;27.448;2023-02-19T07:56:36;101319.38;;;25.66;30.02
8575;BME280;4325;42.520;27.448;2023-02-19T07:59:03;101320.47;;;25.22;30.67
8575;BME280;4325;42.520;27.448;2023-02-19T08:01:32;101322.47;;;24.93;30.89
8575;BME280;4325;42.520;27.448;2023-02-19T08:04:16;101323.69;;;25.48;30.22
8575;BME280;4325;42.520;27.448;2023-02-19T08:06:43;101327.06;;;25.14;29.95
8575;BME280;4325;42.520;27.448;2023-02-19T08:09:10;101317.81;;;24.61;30.69
8575;BME280;4325;42.520;27.448;2023-02-19T08:11:36;101322.28;;;24.50;31.08
8575;BME280;4325;42.520;27.448;2023-02-19T08:14:23;101312.66;;;24.63;30.66
8575;BME280;4325;42.520;27.448;2023-02-19T08:16:52;101303.16;;;25.32;30.19
8575;BME280;4325;42.520;27.448;2023-02-19T08:19:20;101306.09;;;26.41;28.88
8575;BME280;4325;42.520;27.448;2023-02-19T08:21:47;101308.91;;;26.92;27.85
8575;BME280;4325;42.520;27.448;2023-02-19T08:24:15;101313.81;;;27.33;27.39
8575;BME280;4325;42.520;27.448;2023-02-19T08:26:42;101302.56;;;28.43;26.16
8575;BME280;4325;42.520;27.448;2023-02-19T08:29:08;101299.50;;;29.37;25.17
8575;BME280;4325;42.520;27.448;2023-02-19T08:31:35;101294.69;;;30.22;24.00
8575;BME280;4325;42.520;27.448;2023-02-19T08:34:04;101305.53;;;30.67;22.98
8575;BME280;4325;42.520;27.448;2023-02-19T08:36:31;101297.47;;;30.69;23.29
8575;BME280;4325;42.520;27.448;2023-02-19T08:38:58;101292.41;;;30.38;22.93
8575;BME280;4325;42.520;27.448;2023-02-19T08:41:25;101289.72;;;30.52;22.89
8575;BME280;4325;42.520;27.448;2023-02-19T08:43:52;101294.66;;;31.55;21.86
8575;BME280;4325;42.520;27.448;2023-02-19T08:46:19;101287.94;;;30.98;22.07
8575;BME280;4325;42.520;27.448;2023-02-19T08:48:47;101277.13;;;31.18;22.27
8575;BME280;4325;42.520;27.448;2023-02-19T08:51:15;101285.63;;;31.14;22.35
8575;BME280;4325;42.520;27.448;2023-02-19T08:53:42;101281.31;;;29.05;24.26
8575;BME280;4325;42.520;27.448;2023-02-19T08:56:13;101262.25;;;28.12;25.35
8575;BME280;4325;42.520;27.448;2023-02-19T08:58:40;101264.56;;;27.23;26.12
8575;BME280;4325;42.520;27.448;2023-02-19T09:01:08;101256.66;;;25.90;27.96
8575;BME280;4325;42.520;27.448;2023-02-19T09:03:35;101257.66;;;25.97;28.03
8575;BME280;4325;42.520;27.448;2023-02-19T09:06:03;101249.72;;;27.87;26.02
8575;BME280;4325;42.520;27.448;2023-02-19T09:08:31;101256.34;;;29.03;24.52
8575;BME280;4325;42.520;27.448;2023-02-19T09:10:58;101235.56;;;28.29;24.94
8575;BME280;4325;42.520;27.448;2023-02-19T09:13:25;101254.66;;;28.43;25.19
8575;BME280;4325;42.520;27.448;2023-02-19T09:15:52;101265.25;;;28.75;24.40
8575;BME280;4325;42.520;27.448;2023-02-19T09:18:21;101272.13;;;27.80;25.22
8575;BME280;4325;42.520;27.448;2023-02-19T09:20:48;101261.88;;;27.69;25.51
8575;BME280;4325;42.520;27.448;2023-02-19T09:23:15;101258.84;;;29.12;24.16
8575;BME280;4325;42.520;27.448;2023-02-19T09:25:43;101260.25;;;28.13;25.15
8575;BME280;4325;42.520;27.448;2023-02-19T09:28:10;101259.88;;;28.97;23.93
8575;BME280;4325;42.520;27.448;2023-02-19T09:30:37;101251.50;;;29.04;23.75
8575;BME280;4325;42.520;27.448;2023-02-19T09:33:04;101257.16;;;30.21;22.88
8575;BME280;4325;42.520;27.448;2023-02-19T09:35:31;101257.94;;;28.71;23.40
8575;BME280;4325;42.520;27.448;2023-02-19T09:37:58;101255.28;;;29.15;23.13
8575;BME280;4325;42.520;27.448;2023-02-19T09:40:26;101250.88;;;30.42;22.13
8575;BME280;4325;42.520;27.448;2023-02-19T09:42:54;101251.50;;;29.04;22.86
8575;BME280;4325;42.520;27.448;2023-02-19T09:45:23;101243.19;;;28.85;23.11
8575;BME280;4325;42.520;27.448;2023-02-19T09:47:53;101232.94;;;28.43;23.21
8575;BME280;4325;42.520;27.448;2023-02-19T09:50:26;101234.69;;;29.48;22.51
8575;BME280;4325;42.520;27.448;2023-02-19T09:52:57;101239.94;;;30.37;21.59
8575;BME280;4325;42.520;27.448;2023-02-19T09:55:30;101226.19;;;30.35;21.37
8575;BME280;4325;42.520;27.448;2023-02-19T09:58:02;101211.72;;;30.47;21.41
8575;BME280;4325;42.520;27.448;2023-02-19T10:00:33;101219.22;;;29.71;22.16
8575;BME280;4325;42.520;27.448;2023-02-19T10:03:03;101216.03;;;29.36;22.28
8575;BME280;4325;42.520;27.448;2023-02-19T10:05:31;101207.97;;;31.01;21.00
8575;BME280;4325;42.520;27.448;2023-02-19T10:07:59;101199.69;;;33.22;19.55
8575;BME280;4325;42.520;27.448;2023-02-19T10:10:31;101198.81;;;36.88;16.76
8575;BME280;4325;42.520;27.448;2023-02-19T10:13:13;101191.00;;;38.69;15.47
8575;BME280;4325;42.520;27.448;2023-02-19T10:15:46;101190.75;;;39.93;14.87
8575;BME280;4325;42.520;27.448;2023-02-19T10:18:16;101186.50;;;39.98;14.06
8575;BME280;4325;42.520;27.448;2023-02-19T10:20:44;101179.63;;;37.44;15.87
8575;BME280;4325;42.520;27.448;2023-02-19T10:23:13;101188.13;;;35.63;16.68
8575;BME280;4325;42.520;27.448;2023-02-19T10:25:43;101192.84;;;35.47;16.80
8575;BME280;4325;42.520;27.448;2023-02-19T10:28:15;101183.59;;;35.39;16.66
8575;BME280;4325;42.520;27.448;2023-02-19T10:30:44;101172.13;;;34.22;17.56
8575;BME280;4325;42.520;27.448;2023-02-19T10:33:15;101173.59;;;33.41;17.67
8575;BME280;4325;42.520;27.448;2023-02-19T10:35:54;101164.81;;;34.21;17.26
8575;BME280;4325;42.520;27.448;2023-02-19T10:38:25;101158.03;;;32.98;17.70
8575;BME280;4325;42.520;27.448;2023-02-19T10:41:00;101163.25;;;34.13;17.29
8575;BME280;4325;42.520;27.448;2023-02-19T10:43:31;101170.03;;;35.24;16.75
8575;BME280;4325;42.520;27.448;2023-02-19T10:46:03;101154.66;;;36.57;15.79
8575;BME280;4325;42.520;27.448;2023-02-19T10:48:34;101143.56;;;35.50;15.99
8575;BME280;4325;42.520;27.448;2023-02-19T10:51:05;101146.78;;;35.98;15.68
8575;BME280;4325;42.520;27.448;2023-02-19T10:53:42;101150.13;;;35.47;16.17
8575;BME280;4325;42.520;27.448;2023-02-19T10:56:12;101119.47;;;36.24;15.80
8575;BME280;4325;42.520;27.448;2023-02-19T10:58:41;101128.03;;;35.54;15.80
8575;BME280;4325;42.520;27.448;2023-02-19T11:01:17;101122.94;;;36.31;15.53
8575;BME280;4325;42.520;27.448;2023-02-19T11:03:45;101122.66;;;38.14;14.30
8575;BME280;4325;42.520;27.448;2023-02-19T11:06:14;101117.38;;;39.71;13.78
8575;BME280;4325;42.520;27.448;2023-02-19T11:08:51;101112.63;;;40.67;12.84
8575;BME280;4325;42.520;27.448;2023-02-19T11:11:24;101109.56;;;42.08;12.66
8575;BME280;4325;42.520;27.448;2023-02-19T11:13:55;101104.19;;;43.21;11.35
8575;BME280;4325;42.520;27.448;2023-02-19T11:16:22;101097.75;;;43.26;11.39
8575;BME280;4325;42.520;27.448;2023-02-19T11:18:54;101108.63;;;42.11;11.97
8575;BME280;4325;42.520;27.448;2023-02-19T11:21:25;101095.06;;;39.87;13.05
8575;BME280;4325;42.520;27.448;2023-02-19T11:23:57;101093.38;;;41.07;12.27
8575;BME280;4325;42.520;27.448;2023-02-19T11:26:26;101069.13;;;40.25;13.01
8575;BME280;4325;42.520;27.448;2023-02-19T11:28:57;101086.09;;;39.64;13.17
8575;BME280;4325;42.520;27.448;2023-02-19T11:31:26;101078.63;;;40.44;13.21
8575;BME280;4325;42.520;27.448;2023-02-19T11:33:56;101063.22;;;41.12;12.80
8575;BME280;4325;42.520;27.448;2023-02-19T11:36:27;101057.97;;;40.49;12.88
8575;BME280;4325;42.520;27.448;2023-02-19T11:38:54;101055.75;;;40.53;12.56
8575;BME280;4325;42.520;27.448;2023-02-19T11:41:29;101062.41;;;40.71;12.61
8575;BME280;4325;42.520;27.448;2023-02-19T11:44:16;101055.19;;;41.56;12.55
8575;BME280;4325;42.520;27.448;2023-02-19T11:46:48;101059.34;;;42.09;12.32
8575;BME280;4325;42.520;27.448;2023-02-19T11:49:27;101053.97;;;45.15;11.05
8575;BME280;4325;42.520;27.448;2023-02-19T11:52:08;101046.06;;;44.81;10.83
8575;BME280;4325;42.520;27.448;2023-02-19T11:54:46;101043.06;;;41.97;11.70
8575;BME280;4325;42.520;27.448;2023-02-19T11:57:25;101037.34;;;38.66;13.38
8575;BME280;4325;42.520;27.448;2023-02-19T12:00:11;101010.28;;;36.95;14.61
8575;BME280;4325;42.520;27.448;2023-02-19T12:02:53;100998.31;;;37.16;14.98
8575;BME280;4325;42.520;27.448;2023-02-19T12:05:34;101001.41;;;38.90;13.46
8575;BME280;4325;42.520;27.448;2023-02-19T12:11:13;100992.25;;;41.39;12.15
8575;BME280;4325;42.520;27.448;2023-02-19T12:13:59;100984.47;;;37.76;13.74
8575;BME280;4325;42.520;27.448;2023-02-19T12:16:30;100995.16;;;37.88;13.98
8575;BME280;4325;42.520;27.448;2023-02-19T12:19:13;100991.47;;;38.16;13.62
8575;BME280;4325;42.520;27.448;2023-02-19T12:22:00;100991.56;;;38.12;13.02
8575;BME280;4325;42.520;27.448;2023-02-19T12:24:59;100992.69;;;37.74;13.37
8575;BME280;4325;42.520;27.448;2023-02-19T12:27:38;100976.78;;;36.27;14.26
8575;BME280;4325;42.520;27.448;2023-02-19T12:30:24;100980.66;;;35.58;14.86
8575;BME280;4325;42.520;27.448;2023-02-19T12:33:12;100989.63;;;35.57;14.46
8575;BME280;4325;42.520;27.448;2023-02-19T12:35:52;100979.47;;;34.86;14.93
8575;BME280;4325;42.520;27.448;2023-02-19T12:38:30;100984.22;;;34.39;15.25
8575;BME280;4325;42.520;27.448;2023-02-19T12:41:22;100972.72;;;34.50;15.43
8575;BME280;4325;42.520;27.448;2023-02-19T12:43:55;100972.25;;;34.25;15.35
8575;BME280;4325;42.520;27.448;2023-02-19T12:46:30;100976.06;;;32.96;16.30
8575;BME280;4325;42.520;27.448;2023-02-19T12:49:02;100966.97;;;31.91;16.98
8575;BME280;4325;42.520;27.448;2023-02-19T12:51:35;100957.13;;;32.20;17.02
8575;BME280;4325;42.520;27.448;2023-02-19T12:54:09;100951.72;;;32.50;16.35
8575;BME280;4325;42.520;27.448;2023-02-19T12:56:42;100952.94;;;32.42;16.55
8575;BME280;4325;42.520;27.448;2023-02-19T12:59:14;100957.09;;;32.27;17.03
8575;BME280;4325;42.520;27.448;2023-02-19T13:01:49;100949.06;;;32.15;17.02
8575;BME280;4325;42.520;27.448;2023-02-19T13:04:25;100952.34;;;32.07;17.01
8575;BME280;4325;42.520;27.448;2023-02-19T13:06:57;100948.44;;;31.72;17.31
8575;BME280;4325;42.520;27.448;2023-02-19T13:09:31;100942.78;;;31.69;17.34
8575;BME280;4325;42.520;27.448;2023-02-19T13:12:02;100945.72;;;32.89;16.95
8575;BME280;4325;42.520;27.448;2023-02-19T13:14:34;100943.97;;;33.47;16.37
8575;BME280;4325;42.520;27.448;2023-02-19T13:17:07;100933.03;;;34.13;15.64
8575;BME280;4325;42.520;27.448;2023-02-19T13:19:40;100934.44;;;35.28;15.52
8575;BME280;4325;42.520;27.448;2023-02-19T13:22:15;100936.25;;;36.00;14.63